sensor_id;sensor_type;location;lat;lon;timestamp;P1;durP1;ratioP1;P2;durP2;ratioP2
72065;SDS011;59939;52.516;13.420;2023-05-07T00:02:05;28.80;;;15.97;;
72065;SDS011;59939;52.516;13.420;2023-05-07T00:05:10;30.33;;;16.67;;
72065;SDS011;59939;52.516;13.420;2023-05-07T00:08:15;29.70;;;15.20;;
72065;SDS011;59939;52.516;13.420;2023-05-07T00:11:18;28.13;;;16.73;;
72065;SDS011;59939;52.516;13.420;2023-05-07T00:14:22;27.33;;;16.30;;
72065;SDS011;59939;52.516;13.420;2023-05-07T00:17:26;29.10;;;15.63;;
72065;SDS011;59939;52.516;13.420;2023-05-07T00:20:29;24.63;;;14.27;;
72065;SDS011;59939;52.516;13.420;2023-05-07T00:23:34;27.13;;;14.67;;
72065;SDS011;59939;52.516;13.420;2023-05-07T00:26:38;24.40;;;15.33;;
72065;SDS011;59939;52.516;13.420;2023-05-07T00:29:42;29.60;;;15.23;;
72065;SDS011;59939;52.516;13.420;2023-05-07T00:32:48;25.27;;;13.87;;
72065;SDS011;59939;52.516;13.420;2023-05-07T00:35:53;26.17;;;15.33;;
72065;SDS011;59939;52.516;13.420;2023-05-07T00:39:07;24.50;;;13.80;;
72065;SDS011;59939;52.516;13.420;2023-05-07T00:42:11;27.10;;;15.20;;
72065;SDS011;59939;52.516;13.420;2023-05-07T00:45:15;25.33;;;15.27;;
72065;SDS011;59939;52.516;13.420;2023-05-07T00:48:19;28.00;;;15.83;;
72065;SDS011;59939;52.516;13.420;2023-05-07T00:51:23;27.97;;;17.00;;
72065;SDS011;59939;52.516;13.420;2023-05-07T00:54:31;26.47;;;15.67;;
72065;SDS011;59939;52.516;13.420;2023-05-07T00:57:43;25.97;;;15.60;;
72065;SDS011;59939;52.516;13.420;2023-05-07T01:00:47;25.73;;;15.03;;
72065;SDS011;59939;52.516;13.420;2023-05-07T01:03:53;24.63;;;15.27;;
72065;SDS011;59939;52.516;13.420;2023-05-07T01:06:58;26.87;;;15.30;;
72065;SDS011;59939;52.516;13.420;2023-05-07T01:10:04;29.77;;;15.97;;
72065;SDS011;59939;52.516;13.420;2023-05-07T01:13:12;28.30;;;15.47;;
72065;SDS011;59939;52.516;13.420;2023-05-07T01:16:16;26.93;;;15.77;;
72065;SDS011;59939;52.516;13.420;2023-05-07T01:19:21;25.47;;;16.90;;
72065;SDS011;59939;52.516;13.420;2023-05-07T01:22:35;26.20;;;15.63;;
72065;SDS011;59939;52.516;13.420;2023-05-07T01:25:54;26.93;;;15.33;;
72065;SDS011;59939;52.516;13.420;2023-05-07T01:29:08;27.37;;;16.07;;
72065;SDS011;59939;52.516;13.420;2023-05-07T01:32:12;27.57;;;15.63;;
72065;SDS011;59939;52.516;13.420;2023-05-07T01:35:18;26.20;;;15.70;;
72065;SDS011;59939;52.516;13.420;2023-05-07T01:38:24;25.40;;;15.07;;
72065;SDS011;59939;52.516;13.420;2023-05-07T01:41:28;23.67;;;13.13;;
72065;SDS011;59939;52.516;13.420;2023-05-07T01:44:36;25.83;;;15.50;;
72065;SDS011;59939;52.516;13.420;2023-05-07T01:47:42;24.63;;;14.10;;
72065;SDS011;59939;52.516;13.420;2023-05-07T01:50:47;24.50;;;13.90;;
72065;SDS011;59939;52.516;13.420;2023-05-07T01:53:52;24.57;;;12.70;;
72065;SDS011;59939;52.516;13.420;2023-05-07T01:56:56;23.60;;;13.20;;
72065;SDS011;59939;52.516;13.420;2023-05-07T02:00:10;23.43;;;13.53;;
72065;SDS011;59939;52.516;13.420;2023-05-07T02:03:21;24.13;;;13.93;;
72065;SDS011;59939;52.516;13.420;2023-05-07T02:06:35;25.30;;;13.60;;
72065;SDS011;59939;52.516;13.420;2023-05-07T02:09:41;26.70;;;15.50;;
72065;SDS011;59939;52.516;13.420;2023-05-07T02:12:53;25.33;;;14.07;;
72065;SDS011;59939;52.516;13.420;2023-05-07T02:15:57;24.47;;;13.10;;
72065;SDS011;59939;52.516;13.420;2023-05-07T02:19:02;26.17;;;14.33;;
72065;SDS011;59939;52.516;13.420;2023-05-07T02:22:22;24.57;;;13.97;;
72065;SDS011;59939;52.516;13.420;2023-05-07T02:25:26;25.90;;;14.43;;
72065;SDS011;59939;52.516;13.420;2023-05-07T02:28:32;23.83;;;13.63;;
72065;SDS011;59939;52.516;13.420;2023-05-07T02:31:42;25.03;;;14.23;;
72065;SDS011;59939;52.516;13.420;2023-05-07T02:34:53;26.07;;;13.57;;
72065;SDS011;59939;52.516;13.420;2023-05-07T02:38:05;24.03;;;13.50;;
72065;SDS011;59939;52.516;13.420;2023-05-07T02:41:17;25.83;;;14.37;;
72065;SDS011;59939;52.516;13.420;2023-05-07T02:44:20;26.53;;;13.37;;
72065;SDS011;59939;52.516;13.420;2023-05-07T02:47:26;22.73;;;13.23;;
72065;SDS011;59939;52.516;13.420;2023-05-07T02:50:31;22.80;;;12.90;;
72065;SDS011;59939;52.516;13.420;2023-05-07T02:53:36;22.70;;;12.30;;
72065;SDS011;59939;52.516;13.420;2023-05-07T02:56:40;23.13;;;12.93;;
72065;SDS011;59939;52.516;13.420;2023-05-07T02:59:44;24.63;;;13.30;;
72065;SDS011;59939;52.516;13.420;2023-05-07T03:02:50;23.53;;;12.90;;
72065;SDS011;59939;52.516;13.420;2023-05-07T03:05:54;22.43;;;12.23;;
72065;SDS011;59939;52.516;13.420;2023-05-07T03:08:59;23.60;;;12.00;;
72065;SDS011;59939;52.516;13.420;2023-05-07T03:12:04;21.90;;;12.83;;
72065;SDS011;59939;52.516;13.420;2023-05-07T03:15:08;20.50;;;11.40;;
72065;SDS011;59939;52.516;13.420;2023-05-07T03:18:12;21.20;;;12.10;;
72065;SDS011;59939;52.516;13.420;2023-05-07T03:21:16;24.07;;;12.33;;
72065;SDS011;59939;52.516;13.420;2023-05-07T03:24:21;20.63;;;11.43;;
72065;SDS011;59939;52.516;13.420;2023-05-07T03:27:40;22.43;;;12.73;;
72065;SDS011;59939;52.516;13.420;2023-05-07T03:30:46;26.53;;;13.70;;
72065;SDS011;59939;52.516;13.420;2023-05-07T03:33:53;22.60;;;13.00;;
72065;SDS011;59939;52.516;13.420;2023-05-07T03:37:00;21.50;;;12.27;;
72065;SDS011;59939;52.516;13.420;2023-05-07T03:40:04;27.90;;;13.77;;
72065;SDS011;59939;52.516;13.420;2023-05-07T03:43:17;25.43;;;14.33;;
72065;SDS011;59939;52.516;13.420;2023-05-07T03:46:26;25.17;;;13.93;;
72065;SDS011;59939;52.516;13.420;2023-05-07T03:49:39;25.70;;;13.50;;
72065;SDS011;59939;52.516;13.420;2023-05-07T03:52:43;24.77;;;14.23;;
72065;SDS011;59939;52.516;13.420;2023-05-07T03:55:48;23.83;;;12.47;;
72065;SDS011;59939;52.516;13.420;2023-05-07T03:58:56;26.30;;;14.77;;
72065;SDS011;59939;52.516;13.420;2023-05-07T04:02:00;23.43;;;13.57;;
72065;SDS011;59939;52.516;13.420;2023-05-07T04:05:07;25.47;;;14.00;;
72065;SDS011;59939;52.516;13.420;2023-05-07T04:08:28;23.53;;;12.60;;
72065;SDS011;59939;52.516;13.420;2023-05-07T04:11:35;26.03;;;13.47;;
72065;SDS011;59939;52.516;13.420;2023-05-07T04:14:42;22.87;;;12.17;;
72065;SDS011;59939;52.516;13.420;2023-05-07T04:17:46;22.87;;;11.40;;
72065;SDS011;59939;52.516;13.420;2023-05-07T04:20:52;20.53;;;12.23;;
72065;SDS011;59939;52.516;13.420;2023-05-07T04:23:57;25.30;;;12.73;;
72065;SDS011;59939;52.516;13.420;2023-05-07T04:27:02;21.60;;;12.37;;
72065;SDS011;59939;52.516;13.420;2023-05-07T04:30:07;21.07;;;11.97;;
72065;SDS011;59939;52.516;13.420;2023-05-07T04:33:15;20.97;;;10.73;;
72065;SDS011;59939;52.516;13.420;2023-05-07T04:36:30;18.50;;;9.97;;
72065;SDS011;59939;52.516;13.420;2023-05-07T04:39:40;18.70;;;9.77;;
72065;SDS011;59939;52.516;13.420;2023-05-07T04:42:46;19.03;;;10.07;;
72065;SDS011;59939;52.516;13.420;2023-05-07T04:45:51;19.67;;;9.97;;
72065;SDS011;59939;52.516;13.420;2023-05-07T04:49:00;19.80;;;10.07;;
72065;SDS011;59939;52.516;13.420;2023-05-07T04:52:05;19.90;;;10.13;;
72065;SDS011;59939;52.516;13.420;2023-05-07T04:55:10;18.17;;;9.63;;
72065;SDS011;59939;52.516;13.420;2023-05-07T04:58:28;17.43;;;8.10;;
72065;SDS011;59939;52.516;13.420;2023-05-07T05:01:43;16.63;;;8.40;;
72065;SDS011;59939;52.516;13.420;2023-05-07T05:04:48;17.07;;;8.33;;
72065;SDS011;59939;52.516;13.420;2023-05-07T05:11:34;17.93;;;8.33;;
72065;SDS011;59939;52.516;13.420;2023-05-07T05:14:39;16.63;;;7.83;;
72065;SDS011;59939;52.516;13.420;2023-05-07T05:17:44;15.97;;;7.73;;
72065;SDS011;59939;52.516;13.420;2023-05-07T05:20:51;18.67;;;8.27;;
72065;SDS011;59939;52.516;13.420;2023-05-07T05:23:58;18.53;;;7.93;;
72065;SDS011;59939;52.516;13.420;2023-05-07T05:27:04;17.33;;;8.13;;
72065;SDS011;59939;52.516;13.420;2023-05-07T05:30:09;20.03;;;9.00;;
72065;SDS011;59939;52.516;13.420;2023-05-07T05:33:13;18.23;;;8.70;;
72065;SDS011;59939;52.516;13.420;2023-05-07T05:36:17;19.73;;;9.10;;
72065;SDS011;59939;52.516;13.420;2023-05-07T05:39:23;19.47;;;9.00;;
72065;SDS011;59939;52.516;13.420;2023-05-07T05:42:27;17.17;;;8.67;;
72065;SDS011;59939;52.516;13.420;2023-05-07T05:45:33;17.80;;;8.30;;
72065;SDS011;59939;52.516;13.420;2023-05-07T05:48:45;17.07;;;8.77;;
72065;SDS011;59939;52.516;13.420;2023-05-07T05:52:03;20.30;;;9.30;;
72065;SDS011;59939;52.516;13.420;2023-05-07T05:55:17;17.77;;;8.63;;
72065;SDS011;59939;52.516;13.420;2023-05-07T05:58:22;19.00;;;9.43;;
72065;SDS011;59939;52.516;13.420;2023-05-07T06:01:43;19.07;;;8.30;;
72065;SDS011;59939;52.516;13.420;2023-05-07T06:04:50;20.43;;;8.57;;
72065;SDS011;59939;52.516;13.420;2023-05-07T06:07:57;18.20;;;8.63;;
72065;SDS011;59939;52.516;13.420;2023-05-07T06:11:05;20.50;;;8.97;;
72065;SDS011;59939;52.516;13.420;2023-05-07T06:14:14;17.13;;;8.43;;
72065;SDS011;59939;52.516;13.420;2023-05-07T06:17:32;17.00;;;7.90;;
72065;SDS011;59939;52.516;13.420;2023-05-07T06:20:37;18.93;;;8.77;;
72065;SDS011;59939;52.516;13.420;2023-05-07T06:23:47;19.43;;;8.83;;
72065;SDS011;59939;52.516;13.420;2023-05-07T06:26:52;19.07;;;9.23;;
72065;SDS011;59939;52.516;13.420;2023-05-07T06:30:07;19.67;;;8.53;;
72065;SDS011;59939;52.516;13.420;2023-05-07T06:33:11;17.17;;;8.70;;
72065;SDS011;59939;52.516;13.420;2023-05-07T06:36:15;17.93;;;8.47;;
72065;SDS011;59939;52.516;13.420;2023-05-07T06:39:21;20.13;;;8.50;;
72065;SDS011;59939;52.516;13.420;2023-05-07T06:42:24;15.00;;;7.13;;
72065;SDS011;59939;52.516;13.420;2023-05-07T06:45:35;17.13;;;7.73;;
72065;SDS011;59939;52.516;13.420;2023-05-07T06:52:10;16.50;;;8.10;;
72065;SDS011;59939;52.516;13.420;2023-05-07T06:55:25;20.93;;;8.33;;
72065;SDS011;59939;52.516;13.420;2023-05-07T06:58:32;14.87;;;6.83;;
72065;SDS011;59939;52.516;13.420;2023-05-07T07:01:36;14.00;;;6.77;;
72065;SDS011;59939;52.516;13.420;2023-05-07T07:04:44;13.80;;;6.77;;
72065;SDS011;59939;52.516;13.420;2023-05-07T07:07:52;15.80;;;6.83;;
72065;SDS011;59939;52.516;13.420;2023-05-07T07:10:57;14.90;;;6.30;;
72065;SDS011;59939;52.516;13.420;2023-05-07T07:14:04;14.63;;;6.50;;
72065;SDS011;59939;52.516;13.420;2023-05-07T07:17:13;16.07;;;6.90;;
72065;SDS011;59939;52.516;13.420;2023-05-07T07:20:24;15.38;;;6.05;;
72065;SDS011;59939;52.516;13.420;2023-05-07T07:23:28;16.38;;;6.97;;
72065;SDS011;59939;52.516;13.420;2023-05-07T07:26:46;15.20;;;5.75;;
72065;SDS011;59939;52.516;13.420;2023-05-07T07:29:55;14.00;;;6.65;;
72065;SDS011;59939;52.516;13.420;2023-05-07T07:33:00;13.45;;;5.60;;
72065;SDS011;59939;52.516;13.420;2023-05-07T07:36:12;14.07;;;5.43;;
72065;SDS011;59939;52.516;13.420;2023-05-07T07:39:16;11.95;;;4.90;;
72065;SDS011;59939;52.516;13.420;2023-05-07T07:42:26;11.90;;;5.10;;
72065;SDS011;59939;52.516;13.420;2023-05-07T07:45:30;10.95;;;5.20;;
72065;SDS011;59939;52.516;13.420;2023-05-07T07:48:34;11.63;;;4.80;;
72065;SDS011;59939;52.516;13.420;2023-05-07T07:51:42;11.52;;;4.57;;
72065;SDS011;59939;52.516;13.420;2023-05-07T07:54:49;10.55;;;4.63;;
72065;SDS011;59939;52.516;13.420;2023-05-07T07:57:53;9.13;;;4.30;;
72065;SDS011;59939;52.516;13.420;2023-05-07T08:00:59;11.35;;;4.70;;
72065;SDS011;59939;52.516;13.420;2023-05-07T08:04:03;14.05;;;4.78;;
72065;SDS011;59939;52.516;13.420;2023-05-07T08:07:13;11.23;;;4.65;;
72065;SDS011;59939;52.516;13.420;2023-05-07T08:10:19;10.27;;;4.00;;
72065;SDS011;59939;52.516;13.420;2023-05-07T08:13:31;10.18;;;4.53;;
72065;SDS011;59939;52.516;13.420;2023-05-07T08:16:36;11.82;;;4.50;;
72065;SDS011;59939;52.516;13.420;2023-05-07T08:19:41;11.07;;;4.75;;
72065;SDS011;59939;52.516;13.420;2023-05-07T08:22:48;9.90;;;3.97;;
72065;SDS011;59939;52.516;13.420;2023-05-07T08:25:54;11.30;;;4.00;;
72065;SDS011;59939;52.516;13.420;2023-05-07T08:28:58;10.50;;;4.28;;
72065;SDS011;59939;52.516;13.420;2023-05-07T08:32:04;9.52;;;3.90;;
72065;SDS011;59939;52.516;13.420;2023-05-07T08:35:08;7.80;;;3.50;;
72065;SDS011;59939;52.516;13.420;2023-05-07T08:38:12;10.20;;;3.88;;
72065;SDS011;59939;52.516;13.420;2023-05-07T08:41:16;8.50;;;3.60;;
72065;SDS011;59939;52.516;13.420;2023-05-07T08:44:22;10.43;;;3.85;;
72065;SDS011;59939;52.516;13.420;2023-05-07T08:47:42;10.25;;;4.20;;
72065;SDS011;59939;52.516;13.420;2023-05-07T08:50:53;9.70;;;3.90;;
72065;SDS011;59939;52.516;13.420;2023-05-07T08:53:58;8.40;;;3.28;;
72065;SDS011;59939;52.516;13.420;2023-05-07T08:57:06;7.65;;;3.58;;
72065;SDS011;59939;52.516;13.420;2023-05-07T09:00:26;9.02;;;3.63;;
72065;SDS011;59939;52.516;13.420;2023-05-07T09:03:33;10.05;;;4.00;;
72065;SDS011;59939;52.516;13.420;2023-05-07T09:06:38;9.10;;;3.53;;
72065;SDS011;59939;52.516;13.420;2023-05-07T09:09:53;11.98;;;3.55;;
72065;SDS011;59939;52.516;13.420;2023-05-07T09:12:58;12.63;;;3.72;;
72065;SDS011;59939;52.516;13.420;2023-05-07T09:16:15;8.95;;;3.35;;
72065;SDS011;59939;52.516;13.420;2023-05-07T09:19:23;9.35;;;3.40;;
72065;SDS011;59939;52.516;13.420;2023-05-07T09:22:38;9.73;;;4.03;;
72065;SDS011;59939;52.516;13.420;2023-05-07T09:25:48;9.55;;;3.78;;
72065;SDS011;59939;52.516;13.420;2023-05-07T09:28:59;8.70;;;3.65;;
72065;SDS011;59939;52.516;13.420;2023-05-07T09:32:05;8.73;;;3.53;;
72065;SDS011;59939;52.516;13.420;2023-05-07T09:35:16;9.85;;;4.03;;
72065;SDS011;59939;52.516;13.420;2023-05-07T09:38:40;10.68;;;3.60;;
72065;SDS011;59939;52.516;13.420;2023-05-07T09:41:48;9.35;;;3.50;;
72065;SDS011;59939;52.516;13.420;2023-05-07T09:44:59;10.75;;;4.15;;
72065;SDS011;59939;52.516;13.420;2023-05-07T09:48:08;9.55;;;3.20;;
72065;SDS011;59939;52.516;13.420;2023-05-07T09:54:36;7.68;;;3.00;;
72065;SDS011;59939;52.516;13.420;2023-05-07T09:57:42;11.60;;;3.05;;
72065;SDS011;59939;52.516;13.420;2023-05-07T10:00:46;5.22;;;2.47;;
72065;SDS011;59939;52.516;13.420;2023-05-07T10:03:52;6.40;;;2.65;;
72065;SDS011;59939;52.516;13.420;2023-05-07T10:07:16;6.50;;;2.65;;
72065;SDS011;59939;52.516;13.420;2023-05-07T10:10:22;6.13;;;2.42;;
72065;SDS011;59939;52.516;13.420;2023-05-07T10:13:26;6.13;;;2.60;;
72065;SDS011;59939;52.516;13.420;2023-05-07T10:16:34;6.70;;;2.85;;
72065;SDS011;59939;52.516;13.420;2023-05-07T10:19:44;9.65;;;2.55;;
72065;SDS011;59939;52.516;13.420;2023-05-07T10:22:48;6.28;;;2.17;;
72065;SDS011;59939;52.516;13.420;2023-05-07T10:25:59;6.68;;;2.35;;
72065;SDS011;59939;52.516;13.420;2023-05-07T10:29:07;6.45;;;2.38;;
72065;SDS011;59939;52.516;13.420;2023-05-07T10:32:19;5.80;;;2.33;;
72065;SDS011;59939;52.516;13.420;2023-05-07T10:35:45;7.13;;;2.53;;
72065;SDS011;59939;52.516;13.420;2023-05-07T10:38:51;6.85;;;2.25;;
72065;SDS011;59939;52.516;13.420;2023-05-07T10:41:57;5.10;;;2.15;;
72065;SDS011;59939;52.516;13.420;2023-05-07T10:45:11;6.45;;;2.38;;
72065;SDS011;59939;52.516;13.420;2023-05-07T10:48:26;7.78;;;1.95;;
72065;SDS011;59939;52.516;13.420;2023-05-07T10:51:34;5.25;;;2.00;;
72065;SDS011;59939;52.516;13.420;2023-05-07T10:54:47;4.90;;;2.20;;
72065;SDS011;59939;52.516;13.420;2023-05-07T10:58:29;5.13;;;2.47;;
72065;SDS011;59939;52.516;13.420;2023-05-07T11:01:57;6.03;;;2.45;;
72065;SDS011;59939;52.516;13.420;2023-05-07T11:05:20;6.32;;;2.35;;
72065;SDS011;59939;52.516;13.420;2023-05-07T11:15:50;5.00;;;2.20;;
72065;SDS011;59939;52.516;13.420;2023-05-07T11:19:03;5.95;;;2.60;;
72065;SDS011;59939;52.516;13.420;2023-05-07T11:25:47;7.82;;;2.70;;
72065;SDS011;59939;52.516;13.420;2023-05-07T11:28:57;4.80;;;2.17;;
72065;SDS011;59939;52.516;13.420;2023-05-07T11:32:03;6.60;;;2.50;;
72065;SDS011;59939;52.516;13.420;2023-05-07T11:35:13;5.68;;;2.33;;
72065;SDS011;59939;52.516;13.420;2023-05-07T11:38:20;4.50;;;1.98;;
72065;SDS011;59939;52.516;13.420;2023-05-07T11:41:39;6.43;;;2.30;;
72065;SDS011;59939;52.516;13.420;2023-05-07T11:44:46;6.57;;;2.70;;
72065;SDS011;59939;52.516;13.420;2023-05-07T11:47:51;6.50;;;2.50;;
72065;SDS011;59939;52.516;13.420;2023-05-07T11:51:05;6.80;;;2.70;;
72065;SDS011;59939;52.516;13.420;2023-05-07T11:54:09;5.53;;;2.10;;
72065;SDS011;59939;52.516;13.420;2023-05-07T11:57:17;6.93;;;2.30;;
72065;SDS011;59939;52.516;13.420;2023-05-07T12:00:21;4.68;;;2.17;;
72065;SDS011;59939;52.516;13.420;2023-05-07T12:03:26;4.55;;;2.05;;
72065;SDS011;59939;52.516;13.420;2023-05-07T12:06:35;7.32;;;2.25;;
72065;SDS011;59939;52.516;13.420;2023-05-07T12:09:43;6.20;;;2.50;;
72065;SDS011;59939;52.516;13.420;2023-05-07T12:12:47;5.05;;;2.03;;
72065;SDS011;59939;52.516;13.420;2023-05-07T12:15:52;6.75;;;2.15;;
72065;SDS011;59939;52.516;13.420;2023-05-07T12:18:59;4.05;;;2.00;;
72065;SDS011;59939;52.516;13.420;2023-05-07T12:22:12;4.07;;;1.92;;
72065;SDS011;59939;52.516;13.420;2023-05-07T12:25:24;4.60;;;2.40;;
72065;SDS011;59939;52.516;13.420;2023-05-07T12:28:37;6.15;;;2.15;;
72065;SDS011;59939;52.516;13.420;2023-05-07T12:31:49;5.35;;;2.25;;
72065;SDS011;59939;52.516;13.420;2023-05-07T12:34:55;7.45;;;2.10;;
72065;SDS011;59939;52.516;13.420;2023-05-07T12:38:01;5.40;;;2.25;;
72065;SDS011;59939;52.516;13.420;2023-05-07T12:41:08;4.65;;;1.95;;
72065;SDS011;59939;52.516;13.420;2023-05-07T12:44:15;5.65;;;2.17;;
72065;SDS011;59939;52.516;13.420;2023-05-07T12:47:21;4.15;;;1.90;;
72065;SDS011;59939;52.516;13.420;2023-05-07T12:50:25;3.33;;;1.73;;
72065;SDS011;59939;52.516;13.420;2023-05-07T12:53:31;5.55;;;2.20;;
72065;SDS011;59939;52.516;13.420;2023-05-07T12:56:36;3.90;;;1.67;;
72065;SDS011;59939;52.516;13.420;2023-05-07T12:59:41;4.95;;;2.17;;
72065;SDS011;59939;52.516;13.420;2023-05-07T13:02:45;7.25;;;2.08;;
72065;SDS011;59939;52.516;13.420;2023-05-07T13:05:50;3.30;;;1.60;;
72065;SDS011;59939;52.516;13.420;2023-05-07T13:09:02;5.65;;;1.98;;
72065;SDS011;59939;52.516;13.420;2023-05-07T13:12:20;4.78;;;2.08;;
72065;SDS011;59939;52.516;13.420;2023-05-07T13:15:24;2.90;;;1.73;;
72065;SDS011;59939;52.516;13.420;2023-05-07T13:18:30;5.30;;;1.90;;
72065;SDS011;59939;52.516;13.420;2023-05-07T13:21:37;5.07;;;1.90;;
72065;SDS011;59939;52.516;13.420;2023-05-07T13:24:40;7.05;;;2.10;;
72065;SDS011;59939;52.516;13.420;2023-05-07T13:27:46;4.18;;;1.90;;
72065;SDS011;59939;52.516;13.420;2023-05-07T13:30:52;8.77;;;2.25;;
72065;SDS011;59939;52.516;13.420;2023-05-07T13:33:56;5.97;;;2.30;;
72065;SDS011;59939;52.516;13.420;2023-05-07T13:37:00;5.95;;;2.25;;
72065;SDS011;59939;52.516;13.420;2023-05-07T13:40:04;5.53;;;2.03;;
72065;SDS011;59939;52.516;13.420;2023-05-07T13:43:08;3.00;;;1.83;;
72065;SDS011;59939;52.516;13.420;2023-05-07T13:46:12;6.75;;;2.13;;
72065;SDS011;59939;52.516;13.420;2023-05-07T13:49:16;7.32;;;2.30;;
72065;SDS011;59939;52.516;13.420;2023-05-07T13:52:21;6.43;;;2.00;;
72065;SDS011;59939;52.516;13.420;2023-05-07T13:55:28;6.60;;;2.13;;
72065;SDS011;59939;52.516;13.420;2023-05-07T13:58:32;4.68;;;2.00;;
72065;SDS011;59939;52.516;13.420;2023-05-07T14:01:36;4.78;;;1.92;;
72065;SDS011;59939;52.516;13.420;2023-05-07T14:04:42;5.95;;;2.08;;
72065;SDS011;59939;52.516;13.420;2023-05-07T14:07:46;5.90;;;2.30;;
72065;SDS011;59939;52.516;13.420;2023-05-07T14:10:54;3.75;;;2.00;;
72065;SDS011;59939;52.516;13.420;2023-05-07T14:13:58;4.07;;;1.88;;
72065;SDS011;59939;52.516;13.420;2023-05-07T14:17:02;10.40;;;1.95;;
72065;SDS011;59939;52.516;13.420;2023-05-07T14:20:13;5.22;;;2.10;;
72065;SDS011;59939;52.516;13.420;2023-05-07T14:23:17;7.35;;;2.00;;
72065;SDS011;59939;52.516;13.420;2023-05-07T14:26:22;4.75;;;2.00;;
72065;SDS011;59939;52.516;13.420;2023-05-07T14:29:27;3.63;;;1.90;;
72065;SDS011;59939;52.516;13.420;2023-05-07T14:32:32;6.50;;;2.00;;
72065;SDS011;59939;52.516;13.420;2023-05-07T14:35:36;5.72;;;1.95;;
72065;SDS011;59939;52.516;13.420;2023-05-07T14:38:44;5.63;;;2.00;;
72065;SDS011;59939;52.516;13.420;2023-05-07T14:41:52;6.65;;;2.10;;
72065;SDS011;59939;52.516;13.420;2023-05-07T14:44:58;4.22;;;1.90;;
72065;SDS011;59939;52.516;13.420;2023-05-07T14:48:05;4.75;;;1.92;;
72065;SDS011;59939;52.516;13.420;2023-05-07T14:51:11;3.38;;;1.75;;
72065;SDS011;59939;52.516;13.420;2023-05-07T14:54:17;4.47;;;1.70;;
72065;SDS011;59939;52.516;13.420;2023-05-07T14:57:22;6.97;;;2.00;;
72065;SDS011;59939;52.516;13.420;2023-05-07T15:00:26;4.05;;;1.95;;
72065;SDS011;59939;52.516;13.420;2023-05-07T15:03:30;4.93;;;1.90;;
72065;SDS011;59939;52.516;13.420;2023-05-07T15:06:34;6.47;;;2.20;;
72065;SDS011;59939;52.516;13.420;2023-05-07T15:09:52;3.00;;;1.77;;
72065;SDS011;59939;52.516;13.420;2023-05-07T15:12:56;5.03;;;2.10;;
72065;SDS011;59939;52.516;13.420;2023-05-07T15:15:59;6.22;;;2.00;;
72065;SDS011;59939;52.516;13.420;2023-05-07T15:19:04;8.50;;;1.90;;
72065;SDS011;59939;52.516;13.420;2023-05-07T15:22:08;2.80;;;1.58;;
72065;SDS011;59939;52.516;13.420;2023-05-07T15:25:12;3.65;;;1.52;;
72065;SDS011;59939;52.516;13.420;2023-05-07T15:28:24;6.13;;;1.58;;
72065;SDS011;59939;52.516;13.420;2023-05-07T15:31:31;4.10;;;1.80;;
72065;SDS011;59939;52.516;13.420;2023-05-07T15:34:35;3.67;;;1.80;;
72065;SDS011;59939;52.516;13.420;2023-05-07T15:37:39;4.38;;;1.92;;
72065;SDS011;59939;52.516;13.420;2023-05-07T15:40:44;4.43;;;1.92;;
72065;SDS011;59939;52.516;13.420;2023-05-07T15:43:51;4.22;;;1.65;;
72065;SDS011;59939;52.516;13.420;2023-05-07T15:46:55;4.68;;;1.52;;
72065;SDS011;59939;52.516;13.420;2023-05-07T15:49:59;3.35;;;1.63;;
72065;SDS011;59939;52.516;13.420;2023-05-07T15:53:07;5.45;;;1.95;;
72065;SDS011;59939;52.516;13.420;2023-05-07T15:56:14;4.85;;;1.70;;
72065;SDS011;59939;52.516;13.420;2023-05-07T15:59:25;4.95;;;1.80;;
72065;SDS011;59939;52.516;13.420;2023-05-07T16:02:31;4.78;;;1.90;;
72065;SDS011;59939;52.516;13.420;2023-05-07T16:05:35;5.85;;;2.10;;
72065;SDS011;59939;52.516;13.420;2023-05-07T16:08:40;3.38;;;1.85;;
72065;SDS011;59939;52.516;13.420;2023-05-07T16:11:48;5.38;;;2.10;;
72065;SDS011;59939;52.516;13.420;2023-05-07T16:14:52;4.18;;;2.08;;
72065;SDS011;59939;52.516;13.420;2023-05-07T16:17:59;4.90;;;2.33;;
72065;SDS011;59939;52.516;13.420;2023-05-07T16:21:11;6.75;;;2.38;;
72065;SDS011;59939;52.516;13.420;2023-05-07T16:24:15;4.40;;;1.90;;
72065;SDS011;59939;52.516;13.420;2023-05-07T16:27:22;5.30;;;2.45;;
72065;SDS011;59939;52.516;13.420;2023-05-07T16:30:33;4.85;;;1.95;;
72065;SDS011;59939;52.516;13.420;2023-05-07T16:33:39;5.60;;;1.80;;
72065;SDS011;59939;52.516;13.420;2023-05-07T16:36:43;4.15;;;1.70;;
72065;SDS011;59939;52.516;13.420;2023-05-07T16:39:47;5.97;;;2.05;;
72065;SDS011;59939;52.516;13.420;2023-05-07T16:42:51;5.03;;;1.85;;
72065;SDS011;59939;52.516;13.420;2023-05-07T16:45:56;8.65;;;2.20;;
72065;SDS011;59939;52.516;13.420;2023-05-07T16:49:00;3.72;;;1.90;;
72065;SDS011;59939;52.516;13.420;2023-05-07T16:52:06;6.45;;;1.92;;
72065;SDS011;59939;52.516;13.420;2023-05-07T16:55:11;5.55;;;2.17;;
72065;SDS011;59939;52.516;13.420;2023-05-07T16:58:15;6.28;;;1.90;;
72065;SDS011;59939;52.516;13.420;2023-05-07T17:01:18;5.28;;;2.08;;
72065;SDS011;59939;52.516;13.420;2023-05-07T17:04:23;4.25;;;2.15;;
72065;SDS011;59939;52.516;13.420;2023-05-07T17:07:27;5.22;;;1.80;;
72065;SDS011;59939;52.516;13.420;2023-05-07T17:10:31;4.45;;;2.30;;
72065;SDS011;59939;52.516;13.420;2023-05-07T17:13:48;6.15;;;2.05;;
72065;SDS011;59939;52.516;13.420;2023-05-07T17:16:53;3.80;;;1.75;;
72065;SDS011;59939;52.516;13.420;2023-05-07T17:19:56;4.72;;;1.92;;
72065;SDS011;59939;52.516;13.420;2023-05-07T17:23:01;3.83;;;1.77;;
72065;SDS011;59939;52.516;13.420;2023-05-07T17:26:10;4.72;;;2.03;;
72065;SDS011;59939;52.516;13.420;2023-05-07T17:29:14;4.70;;;2.00;;
72065;SDS011;59939;52.516;13.420;2023-05-07T17:32:32;4.00;;;1.70;;
72065;SDS011;59939;52.516;13.420;2023-05-07T17:35:39;5.20;;;1.92;;
72065;SDS011;59939;52.516;13.420;2023-05-07T17:38:43;6.30;;;2.17;;
72065;SDS011;59939;52.516;13.420;2023-05-07T17:41:53;5.93;;;2.13;;
72065;SDS011;59939;52.516;13.420;2023-05-07T17:44:58;6.97;;;1.85;;
72065;SDS011;59939;52.516;13.420;2023-05-07T17:48:03;4.65;;;1.80;;
72065;SDS011;59939;52.516;13.420;2023-05-07T17:51:09;5.40;;;1.95;;
72065;SDS011;59939;52.516;13.420;2023-05-07T17:54:13;5.80;;;1.70;;
72065;SDS011;59939;52.516;13.420;2023-05-07T17:57:17;3.38;;;1.65;;
72065;SDS011;59939;52.516;13.420;2023-05-07T18:00:21;3.03;;;1.70;;
72065;SDS011;59939;52.516;13.420;2023-05-07T18:03:27;4.90;;;2.17;;
72065;SDS011;59939;52.516;13.420;2023-05-07T18:06:32;7.00;;;2.13;;
72065;SDS011;59939;52.516;13.420;2023-05-07T18:09:39;5.85;;;2.20;;
72065;SDS011;59939;52.516;13.420;2023-05-07T18:12:57;6.38;;;2.15;;
72065;SDS011;59939;52.516;13.420;2023-05-07T18:16:03;4.25;;;1.88;;
72065;SDS011;59939;52.516;13.420;2023-05-07T18:19:16;4.57;;;1.70;;
72065;SDS011;59939;52.516;13.420;2023-05-07T18:22:20;3.90;;;1.70;;
72065;SDS011;59939;52.516;13.420;2023-05-07T18:25:25;6.20;;;2.00;;
72065;SDS011;59939;52.516;13.420;2023-05-07T18:28:29;4.88;;;2.00;;
72065;SDS011;59939;52.516;13.420;2023-05-07T18:35:11;5.43;;;2.05;;
72065;SDS011;59939;52.516;13.420;2023-05-07T18:38:15;4.68;;;2.20;;
72065;SDS011;59939;52.516;13.420;2023-05-07T18:41:19;6.78;;;2.25;;
72065;SDS011;59939;52.516;13.420;2023-05-07T18:44:26;6.85;;;2.47;;
72065;SDS011;59939;52.516;13.420;2023-05-07T18:47:32;5.43;;;2.00;;